createdAt,value
2023-05-01T00:00:09.706Z,954.23
2023-05-01T00:00:20.713Z,954.23
2023-05-01T00:00:31.437Z,954.23
2023-05-01T00:00:42.489Z,954.23
2023-05-01T00:00:53.473Z,954.24
2023-05-01T00:01:04.268Z,954.23
2023-05-01T00:01:15.294Z,954.23
2023-05-01T00:01:26.266Z,954.22
2023-05-01T00:01:37.037Z,954.21
2023-05-01T00:01:48.090Z,954.20
2023-05-01T00:01:59.052Z,954.21
2023-05-01T00:02:09.868Z,954.19
2023-05-01T00:02:20.973Z,954.19
2023-05-01T00:02:32.004Z,954.20
2023-05-01T00:02:42.871Z,954.19
2023-05-01T00:02:53.506Z,954.20
2023-05-01T00:03:04.059Z,954.20
2023-05-01T00:03:15.180Z,954.20
2023-05-01T00:03:25.823Z,954.19
2023-05-01T00:03:36.592Z,954.19
2023-05-01T00:03:47.277Z,954.20
2023-05-01T00:03:58.243Z,954.20
2023-05-01T00:04:08.505Z,954.20
2023-05-01T00:04:19.661Z,954.20
2023-05-01T00:04:30.291Z,954.20
2023-05-01T00:04:41.299Z,954.20
2023-05-01T00:04:52.108Z,954.19
2023-05-01T00:05:02.975Z,954.20
2023-05-01T00:05:13.496Z,954.20
2023-05-01T00:05:24.253Z,954.19
2023-05-01T00:05:35.295Z,954.20
2023-05-01T00:05:46.313Z,954.19
2023-05-01T00:05:57.138Z,954.19
2023-05-01T00:06:07.622Z,954.19
2023-05-01T00:06:18.620Z,954.17
2023-05-01T00:06:29.370Z,954.17
2023-05-01T00:06:40.426Z,954.17
2023-05-01T00:06:51.526Z,954.16
2023-05-01T00:07:02.457Z,954.16
2023-05-01T00:07:12.911Z,954.15
2023-05-01T00:07:23.881Z,954.15
2023-05-01T00:07:34.657Z,954.15
2023-05-01T00:07:45.708Z,954.14
2023-05-01T00:07:56.684Z,954.13
2023-05-01T00:08:07.457Z,954.13
2023-05-01T00:08:18.477Z,954.13
2023-05-01T00:08:29.438Z,954.13
2023-05-01T00:08:40.263Z,954.13
2023-05-01T00:08:51.320Z,954.13
2023-05-01T00:09:02.299Z,954.13
2023-05-01T00:09:13.049Z,954.13
2023-05-01T00:09:24.153Z,954.12
2023-05-01T00:09:35.112Z,954.11
2023-05-01T00:09:45.887Z,954.09
2023-05-01T00:09:57.261Z,954.10
2023-05-01T00:10:07.965Z,954.11
2023-05-01T00:10:18.701Z,954.10
2023-05-01T00:10:29.738Z,954.10
2023-05-01T00:10:40.703Z,954.09
2023-05-01T00:10:51.504Z,954.10
2023-05-01T00:11:02.535Z,954.09
2023-05-01T00:11:13.491Z,954.08
2023-05-01T00:11:24.271Z,954.09
2023-05-01T00:11:35.310Z,954.09
2023-05-01T00:11:46.284Z,954.09
2023-05-01T00:11:57.076Z,954.09
2023-05-01T00:12:08.173Z,954.08
2023-05-01T00:12:19.108Z,954.08
2023-05-01T00:12:29.871Z,954.09
2023-05-01T00:12:40.923Z,954.07
2023-05-01T00:12:51.886Z,954.06
2023-05-01T00:13:02.678Z,954.07
2023-05-01T00:13:13.704Z,954.07
2023-05-01T00:13:24.692Z,954.08
2023-05-01T00:13:35.460Z,954.07
2023-05-01T00:13:46.537Z,954.07
2023-05-01T00:13:57.500Z,954.06
2023-05-01T00:14:08.267Z,954.07
2023-05-01T00:14:19.316Z,954.06
2023-05-01T00:14:30.305Z,954.07
2023-05-01T00:14:41.055Z,954.06
2023-05-01T00:14:52.216Z,954.07
2023-05-01T00:15:03.130Z,954.06
2023-05-01T00:15:13.897Z,954.06
2023-05-01T00:15:24.946Z,954.05
2023-05-01T00:15:35.967Z,954.05
2023-05-01T00:15:46.721Z,954.04
2023-05-01T00:15:57.825Z,954.04
2023-05-01T00:16:08.794Z,954.03
2023-05-01T00:16:19.579Z,954.03
2023-05-01T00:16:30.630Z,954.02
2023-05-01T00:16:41.688Z,954.04
2023-05-01T00:16:52.669Z,954.03
2023-05-01T00:17:03.329Z,954.03
2023-05-01T00:17:14.355Z,954.02
2023-05-01T00:17:25.165Z,954.02
2023-05-01T00:17:35.803Z,954.02
2023-05-01T00:17:46.273Z,954.02
2023-05-01T00:17:57.113Z,954.01
2023-05-01T00:18:08.188Z,954.01
2023-05-01T00:18:19.144Z,954.01
2023-05-01T00:18:29.926Z,954.01
2023-05-01T00:18:40.960Z,954.01
2023-05-01T00:18:51.965Z,954.00
2023-05-01T00:19:02.737Z,954.00
2023-05-01T00:19:13.243Z,954.00
2023-05-01T00:19:24.219Z,953.99
2023-05-01T00:19:35.045Z,954.00
2023-05-01T00:19:46.067Z,953.99
2023-05-01T00:19:57.331Z,953.99
2023-05-01T00:20:07.751Z,953.99
2023-05-01T00:20:18.811Z,953.99
2023-05-01T00:20:29.757Z,953.99
2023-05-01T00:20:40.555Z,954.00
2023-05-01T00:20:51.597Z,954.00
2023-05-01T00:21:02.548Z,954.00
2023-05-01T00:21:13.312Z,954.00
2023-05-01T00:21:24.394Z,954.00
2023-05-01T00:21:35.345Z,953.98
2023-05-01T00:21:46.110Z,953.98
2023-05-01T00:21:57.167Z,953.99
2023-05-01T00:22:08.120Z,953.99
2023-05-01T00:22:18.891Z,953.99
2023-05-01T00:22:30.001Z,953.98
2023-05-01T00:22:40.952Z,953.98
2023-05-01T00:22:51.741Z,953.97
2023-05-01T00:23:02.768Z,953.96
2023-05-01T00:23:13.730Z,953.95
2023-05-01T00:23:24.537Z,953.94
2023-05-01T00:23:35.584Z,953.94
2023-05-01T00:23:46.559Z,953.94
2023-05-01T00:23:57.335Z,953.93
2023-05-01T00:24:08.400Z,953.95
2023-05-01T00:24:19.359Z,953.94
2023-05-01T00:24:30.145Z,953.94
2023-05-01T00:24:41.186Z,953.93
2023-05-01T00:24:52.157Z,953.94
2023-05-01T00:25:02.917Z,953.93
2023-05-01T00:25:13.961Z,953.92
2023-05-01T00:25:24.931Z,953.91
2023-05-01T00:25:35.707Z,953.92
2023-05-01T00:25:46.758Z,953.91
2023-05-01T00:25:57.831Z,953.91
2023-05-01T00:26:08.538Z,953.90
2023-05-01T00:26:19.581Z,953.90
2023-05-01T00:26:30.583Z,953.90
2023-05-01T00:26:41.321Z,953.90
2023-05-01T00:26:52.364Z,953.90
2023-05-01T00:27:03.340Z,953.90
2023-05-01T00:27:14.146Z,953.89
2023-05-01T00:27:24.680Z,953.89
2023-05-01T00:27:35.664Z,953.89
2023-05-01T00:27:46.450Z,953.89
2023-05-01T00:27:56.957Z,953.89
2023-05-01T00:28:07.912Z,953.90
2023-05-01T00:28:18.722Z,953.88
2023-05-01T00:28:29.731Z,953.87
2023-05-01T00:28:40.698Z,953.87
2023-05-01T00:28:51.581Z,953.88
2023-05-01T00:29:02.043Z,953.88
2023-05-01T00:29:13.031Z,953.88
2023-05-01T00:29:23.829Z,953.86
2023-05-01T00:29:34.845Z,953.84
2023-05-01T00:29:45.825Z,953.84
2023-05-01T00:29:56.894Z,953.84
2023-05-01T00:30:07.628Z,953.83
2023-05-01T00:30:18.600Z,953.83
2023-05-01T00:30:29.418Z,953.83
2023-05-01T00:30:40.430Z,953.83
2023-05-01T00:30:51.409Z,953.82
2023-05-01T00:31:02.169Z,953.82
2023-05-01T00:31:13.259Z,953.83
2023-05-01T00:31:24.365Z,953.83
2023-05-01T00:31:35.109Z,953.83
2023-05-01T00:31:46.184Z,953.81
2023-05-01T00:31:57.136Z,953.81
2023-05-01T00:32:07.921Z,953.81
2023-05-01T00:32:19.228Z,953.80
2023-05-01T00:32:29.890Z,953.81
2023-05-01T00:32:40.696Z,953.81
2023-05-01T00:32:51.247Z,953.80
2023-05-01T00:33:02.265Z,953.80
2023-05-01T00:33:13.088Z,953.80
2023-05-01T00:33:24.094Z,953.80
2023-05-01T00:33:35.036Z,953.79
2023-05-01T00:33:45.808Z,953.79
2023-05-01T00:33:56.878Z,953.79
2023-05-01T00:34:07.822Z,953.77
2023-05-01T00:34:18.651Z,953.78
2023-05-01T00:34:29.666Z,953.79
2023-05-01T00:34:40.677Z,953.78
2023-05-01T00:34:51.425Z,953.78
2023-05-01T00:35:02.467Z,953.79
2023-05-01T00:35:13.481Z,953.80
2023-05-01T00:35:24.240Z,953.79
2023-05-01T00:35:35.291Z,953.79
2023-05-01T00:35:46.271Z,953.79
2023-05-01T00:35:57.035Z,953.77
2023-05-01T00:36:08.099Z,953.77
2023-05-01T00:36:19.059Z,953.76
2023-05-01T00:36:29.813Z,953.78
2023-05-01T00:36:40.875Z,953.76
2023-05-01T00:36:51.835Z,953.76
2023-05-01T00:37:02.601Z,953.75
2023-05-01T00:37:13.710Z,953.75
2023-05-01T00:37:24.656Z,953.75
2023-05-01T00:37:35.416Z,953.75
2023-05-01T00:37:46.466Z,953.76
2023-05-01T00:37:57.442Z,953.75
2023-05-01T00:38:08.213Z,953.76
2023-05-01T00:38:19.251Z,953.75
2023-05-01T00:38:30.226Z,953.76
2023-05-01T00:38:40.977Z,953.76
2023-05-01T00:38:52.008Z,953.76
2023-05-01T00:39:03.063Z,953.75
2023-05-01T00:39:13.786Z,953.74
2023-05-01T00:39:24.861Z,953.74
2023-05-01T00:39:35.838Z,953.75
2023-05-01T00:39:46.628Z,953.75
2023-05-01T00:39:58.062Z,953.74
2023-05-01T00:40:08.714Z,953.74
2023-05-01T00:40:19.476Z,953.74
2023-05-01T00:40:30.557Z,953.73
2023-05-01T00:40:41.489Z,953.73
2023-05-01T00:40:52.342Z,953.73
2023-05-01T00:41:02.809Z,953.73
2023-05-01T00:41:13.773Z,953.72
2023-05-01T00:41:24.542Z,953.72
2023-05-01T00:41:35.605Z,953.71
2023-05-01T00:41:46.600Z,953.72
2023-05-01T00:41:57.367Z,953.71
2023-05-01T00:42:08.434Z,953.72
2023-05-01T00:42:19.389Z,953.73
2023-05-01T00:42:30.152Z,953.73
2023-05-01T00:42:41.253Z,953.72
2023-05-01T00:42:52.225Z,953.72
2023-05-01T00:43:02.988Z,953.72
2023-05-01T00:43:14.032Z,953.72
2023-05-01T00:43:25.008Z,953.72
2023-05-01T00:43:35.770Z,953.73
2023-05-01T00:43:46.813Z,953.72
2023-05-01T00:43:57.785Z,953.73
2023-05-01T00:44:08.592Z,953.73
2023-05-01T00:44:19.605Z,953.72
2023-05-01T00:44:30.580Z,953.73
2023-05-01T00:44:41.379Z,953.71
2023-05-01T00:44:52.408Z,953.72
2023-05-01T00:45:03.413Z,953.72
2023-05-01T00:45:14.145Z,953.73
2023-05-01T00:45:25.199Z,953.73
2023-05-01T00:45:36.204Z,953.71
2023-05-01T00:45:46.961Z,953.71
2023-05-01T00:45:58.085Z,953.70
2023-05-01T00:46:09.085Z,953.71
2023-05-01T00:46:19.847Z,953.71
2023-05-01T00:46:30.920Z,953.72
2023-05-01T00:46:41.842Z,953.71
2023-05-01T00:46:52.620Z,953.71
2023-05-01T00:47:03.738Z,953.71
2023-05-01T00:47:14.666Z,953.72
2023-05-01T00:47:25.478Z,953.70
2023-05-01T00:47:36.542Z,953.70
2023-05-01T00:47:47.499Z,953.69
2023-05-01T00:47:58.330Z,953.70
2023-05-01T00:48:09.390Z,953.69
2023-05-01T00:48:20.391Z,953.70
2023-05-01T00:48:31.171Z,953.69
2023-05-01T00:48:42.221Z,953.69
2023-05-01T00:48:53.181Z,953.69
2023-05-01T00:49:03.941Z,953.70
2023-05-01T00:49:15.000Z,953.70
2023-05-01T00:49:25.992Z,953.70
2023-05-01T00:49:36.744Z,953.71
2023-05-01T00:49:47.785Z,953.70
2023-05-01T00:49:58.783Z,953.69
2023-05-01T00:50:09.550Z,953.68
2023-05-01T00:50:20.583Z,953.68
2023-05-01T00:50:31.585Z,953.68
2023-05-01T00:50:42.341Z,953.69
2023-05-01T00:50:53.369Z,953.70
2023-05-01T00:51:04.344Z,953.70
2023-05-01T00:51:15.106Z,953.68
2023-05-01T00:51:26.153Z,953.69
2023-05-01T00:51:37.154Z,953.69
2023-05-01T00:51:47.917Z,953.68
2023-05-01T00:51:58.948Z,953.68
2023-05-01T00:52:09.914Z,953.67
2023-05-01T00:52:20.695Z,953.67
2023-05-01T00:52:31.769Z,953.68
2023-05-01T00:52:42.755Z,953.67
2023-05-01T00:52:53.509Z,953.67
2023-05-01T00:53:04.559Z,953.66
2023-05-01T00:53:15.561Z,953.67
2023-05-01T00:53:26.350Z,953.67
2023-05-01T00:53:37.359Z,953.66
2023-05-01T00:53:48.333Z,953.65
2023-05-01T00:53:59.109Z,953.67
2023-05-01T00:54:10.267Z,953.66
2023-05-01T00:54:21.200Z,953.66
2023-05-01T00:54:31.988Z,953.66
2023-05-01T00:54:43.192Z,953.66
2023-05-01T00:54:54.094Z,953.65
2023-05-01T00:55:04.861Z,953.65
2023-05-01T00:55:15.918Z,953.65
2023-05-01T00:55:26.916Z,953.64
2023-05-01T00:55:37.726Z,953.63
2023-05-01T00:55:48.728Z,953.63
2023-05-01T00:55:59.696Z,953.64
2023-05-01T00:56:10.458Z,953.65
2023-05-01T00:56:21.547Z,953.65
2023-05-01T00:56:32.506Z,953.64
2023-05-01T00:56:43.263Z,953.64
2023-05-01T00:56:54.303Z,953.64
2023-05-01T00:57:05.282Z,953.65
2023-05-01T00:57:16.117Z,953.66
2023-05-01T00:57:26.623Z,953.67
2023-05-01T00:57:37.616Z,953.66
2023-05-01T00:57:48.394Z,953.67
2023-05-01T00:57:59.424Z,953.66
2023-05-01T00:58:10.390Z,953.66
2023-05-01T00:58:21.184Z,953.66
2023-05-01T00:58:32.225Z,953.66
2023-05-01T00:58:43.188Z,953.65
2023-05-01T00:58:54.041Z,953.65
2023-05-01T00:59:05.033Z,953.64
2023-05-01T00:59:16.018Z,953.64
2023-05-01T00:59:26.784Z,953.63
2023-05-01T00:59:37.826Z,953.63
2023-05-01T00:59:48.813Z,953.64
2023-05-01T00:59:59.581Z,953.63
2023-05-01T01:00:10.716Z,953.63
2023-05-01T01:00:21.698Z,953.63
2023-05-01T01:00:32.469Z,953.63
2023-05-01T01:00:43.531Z,953.63
2023-05-01T01:00:54.528Z,953.61
2023-05-01T01:01:05.413Z,953.61
2023-05-01T01:01:15.991Z,953.61
2023-05-01T01:01:26.998Z,953.62
2023-05-01T01:01:37.930Z,953.62
2023-05-01T01:01:48.554Z,953.61
2023-05-01T01:01:59.500Z,953.62
2023-05-01T01:02:10.304Z,953.62
2023-05-01T01:02:21.312Z,953.62
2023-05-01T01:02:32.302Z,953.61
2023-05-01T01:02:43.128Z,953.62
2023-05-01T01:02:53.617Z,953.62
2023-05-01T01:03:04.686Z,953.61
2023-05-01T01:03:15.470Z,953.63
2023-05-01T01:03:26.485Z,953.62
2023-05-01T01:03:37.454Z,953.62
2023-05-01T01:03:48.308Z,953.61
2023-05-01T01:03:58.791Z,953.61
2023-05-01T01:04:09.776Z,953.61
2023-05-01T01:04:20.531Z,953.61
2023-05-01T01:04:31.682Z,953.62
2023-05-01T01:04:42.691Z,953.62
2023-05-01T01:04:53.538Z,953.62
2023-05-01T01:05:04.039Z,953.61
2023-05-01T01:05:15.005Z,953.62
2023-05-01T01:05:25.806Z,953.61
2023-05-01T01:05:36.825Z,953.61
2023-05-01T01:05:47.830Z,953.62
2023-05-01T01:05:58.611Z,953.61
2023-05-01T01:06:09.701Z,953.62
2023-05-01T01:06:20.785Z,953.62
2023-05-01T01:06:31.716Z,953.62
2023-05-01T01:06:42.338Z,953.63
2023-05-01T01:06:52.749Z,953.63
2023-05-01T01:07:03.512Z,953.62
2023-05-01T01:07:14.571Z,953.62
2023-05-01T01:07:25.536Z,953.63
2023-05-01T01:07:36.305Z,953.61
2023-05-01T01:07:47.353Z,953.61
2023-05-01T01:07:58.327Z,953.60
2023-05-01T01:08:09.087Z,953.60
2023-05-01T01:08:20.185Z,953.60
2023-05-01T01:08:32.707Z,953.61
2023-05-01T01:08:41.818Z,953.61
2023-05-01T01:08:52.870Z,953.61
2023-05-01T01:09:03.825Z,953.60
2023-05-01T01:09:14.600Z,953.60
2023-05-01T01:09:25.705Z,953.60
2023-05-01T01:09:36.670Z,953.60
2023-05-01T01:09:47.537Z,953.61
2023-05-01T01:09:58.207Z,953.60
2023-05-01T01:10:08.753Z,953.60
2023-05-01T01:10:19.520Z,953.59
2023-05-01T01:10:30.670Z,953.58
2023-05-01T01:10:41.611Z,953.59
2023-05-01T01:10:52.390Z,953.59
2023-05-01T01:11:03.449Z,953.59
2023-05-01T01:11:14.397Z,953.59
2023-05-01T01:11:25.178Z,953.58
2023-05-01T01:11:36.309Z,953.58
2023-05-01T01:11:47.269Z,953.58
2023-05-01T01:11:58.026Z,953.59
2023-05-01T01:12:09.104Z,953.60
2023-05-01T01:12:20.093Z,953.59
2023-05-01T01:12:30.964Z,953.58
2023-05-01T01:12:41.435Z,953.58
2023-05-01T01:12:52.404Z,953.58
2023-05-01T01:13:03.176Z,953.59
2023-05-01T01:13:14.242Z,953.59
2023-05-01T01:13:25.214Z,953.58
2023-05-01T01:13:35.971Z,953.58
2023-05-01T01:13:47.046Z,953.58
2023-05-01T01:13:58.012Z,953.59
2023-05-01T01:14:08.777Z,953.57
2023-05-01T01:14:19.831Z,953.57
2023-05-01T01:14:30.887Z,953.57
2023-05-01T01:14:41.625Z,953.57
2023-05-01T01:14:52.687Z,953.57
2023-05-01T01:15:03.685Z,953.56
2023-05-01T01:15:14.457Z,953.56
2023-05-01T01:15:25.532Z,953.57
2023-05-01T01:15:36.482Z,953.56
2023-05-01T01:15:47.280Z,953.55
2023-05-01T01:15:58.307Z,953.55
2023-05-01T01:16:09.268Z,953.55
2023-05-01T01:16:20.182Z,953.54
2023-05-01T01:16:30.697Z,953.54
2023-05-01T01:16:41.727Z,953.52
2023-05-01T01:16:52.520Z,953.53
2023-05-01T01:17:03.565Z,953.54
2023-05-01T01:17:14.531Z,953.53
2023-05-01T01:17:25.289Z,953.53
2023-05-01T01:17:36.367Z,953.53
2023-05-01T01:17:47.351Z,953.52
2023-05-01T01:17:58.134Z,953.52
2023-05-01T01:18:09.169Z,953.51
2023-05-01T01:18:20.226Z,953.51
2023-05-01T01:18:30.993Z,953.51
2023-05-01T01:18:41.500Z,953.51
2023-05-01T01:18:52.466Z,953.52
2023-05-01T01:19:03.250Z,953.52
2023-05-01T01:19:14.284Z,953.52
2023-05-01T01:19:25.255Z,953.53
2023-05-01T01:19:36.022Z,953.53
2023-05-01T01:19:47.075Z,953.51
2023-05-01T01:19:58.285Z,953.51
2023-05-01T01:20:09.222Z,953.50
2023-05-01T01:20:19.719Z,953.50
2023-05-01T01:20:30.736Z,953.50
2023-05-01T01:20:41.510Z,953.50
2023-05-01T01:20:52.535Z,953.50
2023-05-01T01:21:03.521Z,953.50
2023-05-01T01:21:14.281Z,953.51
2023-05-01T01:21:25.319Z,953.51
2023-05-01T01:21:36.284Z,953.51
2023-05-01T01:21:47.096Z,953.50
2023-05-01T01:21:58.118Z,953.50
2023-05-01T01:22:09.086Z,953.50
2023-05-01T01:22:19.903Z,953.50
2023-05-01T01:22:30.931Z,953.50
2023-05-01T01:22:41.882Z,953.50
2023-05-01T01:22:52.662Z,953.51
2023-05-01T01:23:03.754Z,953.51
2023-05-01T01:23:14.691Z,953.52
2023-05-01T01:23:25.474Z,953.51
2023-05-01T01:23:36.627Z,953.50
2023-05-01T01:23:47.627Z,953.50
2023-05-01T01:23:58.340Z,953.50
2023-05-01T01:24:09.385Z,953.50
2023-05-01T01:24:20.366Z,953.49
2023-05-01T01:24:31.139Z,953.49
2023-05-01T01:24:42.239Z,953.49
2023-05-01T01:24:53.177Z,953.49
2023-05-01T01:25:03.979Z,953.50
2023-05-01T01:25:15.017Z,953.49
2023-05-01T01:25:25.994Z,953.49
2023-05-01T01:25:36.779Z,953.49
2023-05-01T01:25:47.814Z,953.49
2023-05-01T01:25:58.800Z,953.50
2023-05-01T01:26:09.555Z,953.49
2023-05-01T01:26:20.671Z,953.49
2023-05-01T01:26:31.154Z,953.49
2023-05-01T01:26:41.930Z,953.48
2023-05-01T01:26:53.012Z,953.48
2023-05-01T01:27:03.985Z,953.48
2023-05-01T01:27:14.792Z,953.47
2023-05-01T01:27:25.806Z,953.47
2023-05-01T01:27:36.760Z,953.48
2023-05-01T01:27:47.548Z,953.48
2023-05-01T01:27:58.622Z,953.48
2023-05-01T01:28:09.560Z,953.48
2023-05-01T01:28:20.312Z,953.48
2023-05-01T01:28:31.468Z,953.47
2023-05-01T01:28:42.430Z,953.47
2023-05-01T01:28:53.229Z,953.48
2023-05-01T01:29:04.269Z,953.48
2023-05-01T01:29:15.250Z,953.47
2023-05-01T01:29:26.003Z,953.47
2023-05-01T01:29:37.196Z,953.47
2023-05-01T01:29:48.100Z,953.47
2023-05-01T01:29:58.940Z,953.47
2023-05-01T01:30:09.951Z,953.47
2023-05-01T01:30:20.941Z,953.46
2023-05-01T01:30:31.690Z,953.47
2023-05-01T01:30:42.768Z,953.47
2023-05-01T01:30:53.755Z,953.47
2023-05-01T01:31:04.504Z,953.48
2023-05-01T01:31:15.571Z,953.48
2023-05-01T01:31:26.657Z,953.48
2023-05-01T01:31:37.518Z,953.48
2023-05-01T01:31:48.056Z,953.49
2023-05-01T01:31:59.021Z,953.48
2023-05-01T01:32:09.827Z,953.47
2023-05-01T01:32:20.850Z,953.47
2023-05-01T01:32:31.880Z,953.48
2023-05-01T01:32:42.654Z,953.49
2023-05-01T01:32:53.782Z,953.48
2023-05-01T01:33:04.784Z,953.49
2023-05-01T01:33:15.551Z,953.49
2023-05-01T01:33:26.622Z,953.48
2023-05-01T01:33:37.564Z,953.50
2023-05-01T01:33:48.374Z,953.49
2023-05-01T01:33:59.371Z,953.48
2023-05-01T01:34:10.403Z,953.48
2023-05-01T01:34:21.130Z,953.49
2023-05-01T01:34:32.199Z,953.48
2023-05-01T01:34:43.173Z,953.48
2023-05-01T01:34:53.969Z,953.48
2023-05-01T01:35:05.005Z,953.49
2023-05-01T01:35:15.976Z,953.48
2023-05-01T01:35:26.761Z,953.48
2023-05-01T01:35:37.805Z,953.49
2023-05-01T01:35:48.809Z,953.48
2023-05-01T01:35:59.582Z,953.49
2023-05-01T01:36:10.648Z,953.49
2023-05-01T01:36:21.632Z,953.48
2023-05-01T01:36:32.383Z,953.48
2023-05-01T01:36:43.412Z,953.48
2023-05-01T01:36:54.408Z,953.49
2023-05-01T01:37:05.148Z,953.48
2023-05-01T01:37:16.191Z,953.48
2023-05-01T01:37:27.169Z,953.48
2023-05-01T01:37:37.979Z,953.49
2023-05-01T01:37:49.003Z,953.49
2023-05-01T01:38:00.013Z,953.48
2023-05-01T01:38:10.760Z,953.49
2023-05-01T01:38:21.817Z,953.49
2023-05-01T01:38:32.772Z,953.50
2023-05-01T01:38:43.538Z,953.49
2023-05-01T01:38:54.620Z,953.49
2023-05-01T01:39:05.560Z,953.50
2023-05-01T01:39:16.417Z,953.50
2023-05-01T01:39:26.909Z,953.49
2023-05-01T01:39:37.887Z,953.48
2023-05-01T01:39:48.660Z,953.48
2023-05-01T01:39:59.685Z,953.49
2023-05-01T01:40:10.702Z,953.49
2023-05-01T01:40:21.438Z,953.48
2023-05-01T01:40:32.490Z,953.48
2023-05-01T01:40:43.495Z,953.47
2023-05-01T01:40:54.241Z,953.47
2023-05-01T01:41:05.310Z,953.47
2023-05-01T01:41:16.279Z,953.45
2023-05-01T01:41:27.069Z,953.46
2023-05-01T01:41:38.131Z,953.46
2023-05-01T01:41:49.072Z,953.46
2023-05-01T01:41:59.839Z,953.46
2023-05-01T01:42:10.907Z,953.46
2023-05-01T01:42:21.847Z,953.46
2023-05-01T01:42:32.620Z,953.44
2023-05-01T01:42:43.686Z,953.44
2023-05-01T01:42:54.641Z,953.44
2023-05-01T01:43:05.476Z,953.44
2023-05-01T01:43:16.489Z,953.43
2023-05-01T01:43:27.522Z,953.44
2023-05-01T01:43:38.257Z,953.43
2023-05-01T01:43:49.308Z,953.43
2023-05-01T01:44:00.369Z,953.44
2023-05-01T01:44:11.140Z,953.45
2023-05-01T01:44:21.653Z,953.45
2023-05-01T01:44:32.618Z,953.45
2023-05-01T01:44:43.385Z,953.45
2023-05-01T01:44:54.496Z,953.44
2023-05-01T01:45:05.432Z,953.43
2023-05-01T01:45:16.199Z,953.43
2023-05-01T01:45:27.287Z,953.43
2023-05-01T01:45:38.239Z,953.42
2023-05-01T01:45:49.063Z,953.43
2023-05-01T01:46:00.109Z,953.43
2023-05-01T01:46:11.230Z,953.42
2023-05-01T01:46:21.990Z,953.42
2023-05-01T01:46:32.527Z,953.43
2023-05-01T01:46:43.579Z,953.42
2023-05-01T01:46:54.431Z,953.43
2023-05-01T01:47:05.518Z,953.42
2023-05-01T01:47:16.473Z,953.41
2023-05-01T01:47:27.262Z,953.41
2023-05-01T01:47:38.303Z,953.41
2023-05-01T01:47:49.329Z,953.40
2023-05-01T01:48:00.160Z,953.40
2023-05-01T01:48:11.318Z,953.41
2023-05-01T01:48:21.737Z,953.41
2023-05-01T01:48:32.505Z,953.40
2023-05-01T01:48:43.550Z,953.42
2023-05-01T01:48:54.518Z,953.42
2023-05-01T01:49:05.290Z,953.41
2023-05-01T01:49:16.583Z,953.40
2023-05-01T01:49:27.302Z,953.41
2023-05-01T01:49:38.071Z,953.40
2023-05-01T01:49:49.190Z,953.41
2023-05-01T01:50:00.118Z,953.41
2023-05-01T01:50:10.896Z,953.42
2023-05-01T01:50:21.998Z,953.42
2023-05-01T01:50:32.924Z,953.41
2023-05-01T01:50:43.714Z,953.39
2023-05-01T01:50:54.753Z,953.37
2023-05-01T01:51:05.737Z,953.38
2023-05-01T01:51:16.645Z,953.37
2023-05-01T01:51:27.101Z,953.38
2023-05-01T01:51:38.064Z,953.37
2023-05-01T01:51:48.846Z,953.37
2023-05-01T01:51:59.889Z,953.37
2023-05-01T01:52:10.879Z,953.37
2023-05-01T01:52:21.663Z,953.36
2023-05-01T01:52:32.717Z,953.36
2023-05-01T01:52:43.669Z,953.37
2023-05-01T01:52:54.433Z,953.36
2023-05-01T01:53:05.502Z,953.37
2023-05-01T01:53:16.478Z,953.37
2023-05-01T01:53:27.252Z,953.37
2023-05-01T01:53:38.270Z,953.37
2023-05-01T01:53:49.246Z,953.36
2023-05-01T01:54:00.128Z,953.36
2023-05-01T01:54:10.585Z,953.35
2023-05-01T01:54:21.554Z,953.36
2023-05-01T01:54:32.338Z,953.36
2023-05-01T01:54:43.404Z,953.35
2023-05-01T01:54:54.349Z,953.35
2023-05-01T01:55:05.129Z,953.34
2023-05-01T01:55:16.158Z,953.33
2023-05-01T01:55:27.125Z,953.34
2023-05-01T01:55:37.932Z,953.33
2023-05-01T01:55:48.972Z,953.34
2023-05-01T01:56:01.784Z,953.34
2023-05-01T01:56:10.870Z,953.34
2023-05-01T01:56:21.973Z,953.34
2023-05-01T01:56:32.930Z,953.35
2023-05-01T01:56:43.748Z,953.33
2023-05-01T01:56:54.763Z,953.34
2023-05-01T01:57:05.761Z,953.34
2023-05-01T01:57:16.513Z,953.34
2023-05-01T01:57:27.552Z,953.33
2023-05-01T01:57:38.571Z,953.32
2023-05-01T01:57:49.312Z,953.32
2023-05-01T01:58:00.340Z,953.31
2023-05-01T01:58:11.399Z,953.31
2023-05-01T01:58:22.120Z,953.31
2023-05-01T01:58:33.182Z,953.30
2023-05-01T01:58:44.148Z,953.30
2023-05-01T01:58:54.935Z,953.30
2023-05-01T01:59:05.964Z,953.30
2023-05-01T01:59:16.932Z,953.30
2023-05-01T01:59:27.714Z,953.30
2023-05-01T01:59:38.812Z,953.30
2023-05-01T01:59:49.732Z,953.30
2023-05-01T02:00:00.531Z,953.31
2023-05-01T02:00:11.563Z,953.31
2023-05-01T02:00:22.534Z,953.31
2023-05-01T02:00:33.313Z,953.30
2023-05-01T02:00:44.428Z,953.29
2023-05-01T02:00:55.335Z,953.28
2023-05-01T02:01:06.115Z,953.29
2023-05-01T02:01:17.209Z,953.29
2023-05-01T02:01:28.235Z,953.28
2023-05-01T02:01:39.000Z,953.28
2023-05-01T02:01:50.104Z,953.29
2023-05-01T02:02:01.068Z,953.29
2023-05-01T02:02:11.857Z,953.28
2023-05-01T02:02:22.416Z,953.29
2023-05-01T02:02:33.481Z,953.31
2023-05-01T02:02:44.297Z,953.29
2023-05-01T02:02:54.905Z,953.29
2023-05-01T02:03:05.937Z,953.28
2023-05-01T02:03:16.810Z,953.28
2023-05-01T02:03:27.583Z,953.28
2023-05-01T02:03:38.347Z,953.28
2023-05-01T02:03:49.385Z,953.28
2023-05-01T02:04:00.099Z,953.28
2023-05-01T02:04:10.681Z,953.29
2023-05-01T02:04:21.464Z,953.28
2023-05-01T02:04:32.516Z,953.29
2023-05-01T02:04:43.497Z,953.28
2023-05-01T02:04:54.265Z,953.26
2023-05-01T02:05:05.309Z,953.26
2023-05-01T02:05:16.280Z,953.27
2023-05-01T02:05:27.069Z,953.27
2023-05-01T02:05:38.115Z,953.26
2023-05-01T02:05:49.081Z,953.25
2023-05-01T02:05:59.955Z,953.25
2023-05-01T02:06:10.468Z,953.26
2023-05-01T02:06:21.428Z,953.25
2023-05-01T02:06:32.242Z,953.23
2023-05-01T02:06:42.744Z,953.23
2023-05-01T02:06:53.707Z,953.24
2023-05-01T02:07:04.512Z,953.22
2023-05-01T02:07:15.547Z,953.21
2023-05-01T02:07:26.530Z,953.21
2023-05-01T02:07:37.291Z,953.22
2023-05-01T02:07:48.334Z,953.22
2023-05-01T02:07:59.310Z,953.20
2023-05-01T02:08:10.106Z,953.20
2023-05-01T02:08:21.124Z,953.19
2023-05-01T02:08:32.086Z,953.18
2023-05-01T02:08:42.931Z,953.18
2023-05-01T02:08:53.943Z,953.18
2023-05-01T02:09:04.906Z,953.17
2023-05-01T02:09:15.690Z,953.17
2023-05-01T02:09:26.783Z,953.17
2023-05-01T02:09:37.738Z,953.17
2023-05-01T02:09:48.481Z,953.17
2023-05-01T02:09:59.537Z,953.17
2023-05-01T02:10:10.510Z,953.17
2023-05-01T02:10:21.274Z,953.17
2023-05-01T02:10:32.321Z,953.17
2023-05-01T02:10:43.291Z,953.18
2023-05-01T02:10:54.118Z,953.17
2023-05-01T02:11:05.147Z,953.16
2023-05-01T02:11:16.120Z,953.17
2023-05-01T02:11:26.870Z,953.18
2023-05-01T02:11:37.931Z,953.19
2023-05-01T02:11:48.952Z,953.17
2023-05-01T02:11:59.687Z,953.17
2023-05-01T02:12:10.731Z,953.17
2023-05-01T02:12:21.692Z,953.16
2023-05-01T02:12:32.486Z,953.17
2023-05-01T02:12:43.507Z,953.17
2023-05-01T02:12:54.469Z,953.18
2023-05-01T02:13:05.243Z,953.18
2023-05-01T02:13:16.293Z,953.18
2023-05-01T02:13:27.289Z,953.17
2023-05-01T02:13:38.042Z,953.17
2023-05-01T02:13:49.153Z,953.18
2023-05-01T02:14:00.114Z,953.18
2023-05-01T02:14:10.866Z,953.17
2023-05-01T02:14:21.967Z,953.16
2023-05-01T02:14:32.876Z,953.16
2023-05-01T02:14:43.641Z,953.16
2023-05-01T02:14:54.690Z,953.15
2023-05-01T02:15:05.685Z,953.15
2023-05-01T02:15:16.497Z,953.17
2023-05-01T02:15:27.515Z,953.19
2023-05-01T02:15:38.503Z,953.19
2023-05-01T02:15:49.264Z,953.19
2023-05-01T02:16:00.387Z,953.18
2023-05-01T02:16:11.370Z,953.17